createdAt,value
2023-01-21T00:01:35.279Z,19.77
2023-01-21T00:05:37.939Z,17.20
2023-01-21T00:09:42.056Z,16.57
2023-01-21T00:13:45.489Z,15.27
2023-01-21T00:17:48.148Z,15.77
2023-01-21T00:21:50.874Z,17.57
2023-01-21T00:25:59.640Z,17.20
2023-01-21T00:30:02.583Z,17.43
2023-01-21T00:34:05.285Z,16.83
2023-01-21T00:38:08.285Z,15.27
2023-01-21T00:42:12.367Z,15.73
2023-01-21T00:46:15.072Z,16.23
2023-01-21T00:50:18.275Z,15.87
2023-01-21T00:54:21.471Z,15.20
2023-01-21T00:58:25.762Z,16.00
2023-01-21T01:02:28.648Z,14.80
2023-01-21T01:06:31.327Z,16.57
2023-01-21T01:10:33.993Z,15.50
2023-01-21T01:14:38.035Z,15.30
2023-01-21T01:18:40.962Z,14.30
2023-01-21T01:22:43.659Z,14.17
2023-01-21T01:26:46.654Z,14.20
2023-01-21T01:30:51.173Z,14.83
2023-01-21T01:34:53.900Z,13.73
2023-01-21T01:38:56.586Z,13.87
2023-01-21T01:42:59.291Z,14.37
2023-01-21T01:47:04.460Z,13.80
2023-01-21T01:51:07.616Z,13.90
2023-01-21T01:55:11.320Z,13.43
2023-01-21T01:59:14.455Z,13.73
2023-01-21T02:03:47.824Z,13.13
2023-01-21T02:07:50.520Z,13.30
2023-01-21T02:11:53.242Z,12.40
2023-01-21T02:16:07.493Z,12.17
2023-01-21T02:20:30.301Z,12.30
2023-01-21T02:25:12.374Z,12.70
2023-01-21T02:29:46.367Z,12.33
2023-01-21T02:33:57.069Z,13.30
2023-01-21T02:38:06.902Z,13.80
2023-01-21T02:42:14.680Z,13.50
2023-01-21T02:46:19.857Z,14.10
2023-01-21T02:50:26.277Z,14.60
2023-01-21T02:54:54.044Z,14.07
2023-01-21T02:59:00.242Z,14.70
2023-01-21T03:03:35.586Z,14.43
2023-01-21T03:07:43.427Z,15.47
2023-01-21T03:11:52.548Z,14.20
2023-01-21T03:16:18.758Z,14.97
2023-01-21T03:20:24.830Z,15.10
2023-01-21T03:24:29.110Z,15.30
2023-01-21T03:28:34.241Z,14.77
2023-01-21T03:32:37.690Z,15.10
2023-01-21T03:36:44.265Z,14.97
2023-01-21T03:40:53.328Z,15.00
2023-01-21T03:44:56.052Z,15.60
2023-01-21T03:49:00.805Z,15.10
2023-01-21T03:53:03.497Z,15.07
2023-01-21T03:57:07.997Z,15.57
2023-01-21T04:01:10.784Z,15.43
2023-01-21T04:05:14.260Z,15.83
2023-01-21T04:09:16.983Z,15.93
2023-01-21T04:13:21.076Z,16.30
2023-01-21T04:17:23.993Z,16.70
2023-01-21T04:21:26.943Z,15.90
2023-01-21T04:25:29.654Z,17.17
2023-01-21T04:29:33.977Z,16.63
2023-01-21T04:33:36.659Z,16.47
2023-01-21T04:37:39.340Z,15.77
2023-01-21T04:41:42.040Z,17.23
2023-01-21T04:45:46.087Z,16.60
2023-01-21T04:49:49.724Z,16.80
2023-01-21T04:53:52.414Z,16.63
2023-01-21T04:57:55.104Z,17.10
2023-01-21T05:01:59.167Z,17.00
2023-01-21T05:06:01.864Z,16.43
2023-01-21T05:10:04.926Z,16.80
2023-01-21T05:14:07.635Z,17.00
2023-01-21T05:18:11.701Z,15.53
2023-01-21T05:22:14.406Z,15.43
2023-01-21T05:26:17.129Z,17.13
2023-01-21T05:30:20.060Z,15.10
2023-01-21T05:34:24.620Z,14.40
2023-01-21T05:38:27.607Z,14.93
2023-01-21T05:42:30.589Z,15.23
2023-01-21T05:46:33.406Z,13.83
2023-01-21T05:50:39.224Z,13.80
2023-01-21T05:54:52.427Z,14.20
2023-01-21T05:59:03.364Z,14.03
2023-01-21T06:03:06.023Z,13.17
2023-01-21T06:07:10.067Z,14.67
2023-01-21T06:11:12.783Z,14.50
2023-01-21T06:15:15.501Z,14.83
2023-01-21T06:19:18.906Z,14.37
2023-01-21T06:23:22.963Z,14.53
2023-01-21T06:27:25.880Z,14.47
2023-01-21T06:31:28.983Z,14.77
2023-01-21T06:35:32.147Z,14.47
2023-01-21T06:39:36.471Z,14.00
2023-01-21T06:43:39.179Z,13.57
2023-01-21T06:47:42.907Z,14.13
2023-01-21T06:51:45.621Z,13.43
2023-01-21T06:55:49.967Z,13.63
2023-01-21T06:59:52.674Z,13.10
2023-01-21T07:03:55.332Z,12.63
2023-01-21T07:07:58.466Z,12.93
2023-01-21T07:12:02.982Z,12.27
2023-01-21T07:16:07.046Z,13.47
2023-01-21T07:20:12.663Z,13.33
2023-01-21T07:24:15.598Z,12.87
2023-01-21T07:28:19.887Z,12.73
2023-01-21T07:32:22.682Z,12.77
2023-01-21T07:36:26.625Z,12.70
2023-01-21T07:40:29.329Z,12.00
2023-01-21T07:44:34.073Z,12.03
2023-01-21T07:48:37.075Z,12.70
2023-01-21T07:52:40.049Z,11.17
2023-01-21T07:56:43.293Z,12.87
2023-01-21T08:00:47.392Z,12.67
2023-01-21T08:04:50.179Z,11.90
2023-01-21T08:08:53.236Z,11.00
2023-01-21T08:12:55.944Z,12.03
2023-01-21T08:17:00.120Z,11.67
2023-01-21T08:21:02.841Z,12.57
2023-01-21T08:25:06.577Z,11.60
2023-01-21T08:29:09.591Z,11.27
2023-01-21T08:33:13.742Z,11.90
2023-01-21T08:37:16.416Z,11.57
2023-01-21T08:41:19.170Z,11.70
2023-01-21T08:45:22.156Z,11.50
2023-01-21T08:49:26.490Z,12.00
2023-01-21T08:53:29.536Z,11.70
2023-01-21T08:57:32.266Z,11.87
2023-01-21T09:01:36.213Z,12.77
2023-01-21T09:05:40.230Z,13.23
2023-01-21T09:09:43.289Z,11.57
2023-01-21T09:13:46.132Z,12.47
2023-01-21T09:17:48.851Z,12.10
2023-01-21T09:21:55.525Z,13.73
2023-01-21T09:26:02.958Z,11.80
2023-01-21T09:30:06.423Z,12.83
2023-01-21T09:34:10.676Z,12.77
2023-01-21T09:38:14.743Z,13.27
2023-01-21T09:42:19.224Z,14.23
2023-01-21T09:46:29.514Z,14.10
2023-01-21T09:50:33.575Z,12.73
2023-01-21T09:54:38.977Z,13.27
2023-01-21T09:58:43.824Z,12.73
2023-01-21T10:02:51.742Z,12.33
2023-01-21T10:06:57.395Z,12.93
2023-01-21T10:11:13.627Z,11.27
2023-01-21T10:15:39.629Z,9.87
2023-01-21T10:19:46.567Z,9.50
2023-01-21T10:23:51.825Z,6.60
2023-01-21T10:27:57.345Z,7.33
2023-01-21T10:32:02.685Z,8.13
2023-01-21T10:36:26.553Z,7.87
2023-01-21T10:40:43.693Z,7.70
2023-01-21T10:44:53.357Z,8.30
2023-01-21T10:48:59.041Z,9.03
2023-01-21T10:53:06.583Z,8.73
2023-01-21T10:57:15.798Z,7.90
2023-01-21T11:01:23.231Z,7.23
2023-01-21T11:05:26.943Z,7.90
2023-01-21T11:09:33.317Z,7.77
2023-01-21T11:13:36.239Z,7.63
2023-01-21T11:17:41.727Z,8.07
2023-01-21T11:22:00.112Z,8.50
2023-01-21T11:26:04.881Z,7.70
2023-01-21T11:30:40.317Z,7.23
2023-01-21T11:34:45.420Z,8.50
2023-01-21T11:38:50.595Z,6.60
2023-01-21T11:42:55.282Z,7.17
2023-01-21T11:46:58.051Z,6.20
2023-01-21T11:51:17.958Z,7.00
2023-01-21T11:55:23.530Z,7.53
2023-01-21T11:59:29.218Z,6.40
2023-01-21T12:03:34.568Z,6.00
2023-01-21T12:07:40.980Z,6.23
2023-01-21T12:11:44.350Z,5.80
2023-01-21T12:16:03.490Z,5.63
2023-01-21T12:20:26.262Z,9.10
2023-01-21T12:24:40.773Z,9.67
2023-01-21T12:28:53.503Z,6.53
2023-01-21T12:32:59.842Z,5.87
2023-01-21T12:37:05.899Z,5.50
2023-01-21T12:41:14.015Z,6.70
2023-01-21T12:45:20.690Z,5.87
2023-01-21T12:49:26.857Z,7.10
2023-01-21T12:53:34.820Z,8.07
2023-01-21T12:57:41.579Z,8.00
2023-01-21T13:01:50.220Z,8.57
2023-01-21T13:05:56.531Z,8.07
2023-01-21T13:10:04.953Z,7.73
2023-01-21T13:14:25.000Z,8.73
2023-01-21T13:18:32.205Z,6.97
2023-01-21T13:22:38.011Z,7.57
2023-01-21T13:26:45.869Z,7.03
2023-01-21T13:30:54.957Z,7.40
2023-01-21T13:35:06.622Z,7.63
2023-01-21T13:39:19.005Z,6.80
2023-01-21T13:43:35.388Z,6.90
2023-01-21T13:47:48.908Z,7.20
2023-01-21T13:51:59.278Z,7.50
2023-01-21T13:56:11.867Z,6.53
2023-01-21T14:00:17.719Z,6.40
2023-01-21T14:04:27.224Z,6.93
2023-01-21T14:08:34.360Z,6.30
2023-01-21T14:12:52.330Z,6.93
2023-01-21T14:17:08.740Z,6.30
2023-01-21T14:21:23.052Z,7.53
2023-01-21T14:25:34.345Z,8.47
2023-01-21T14:29:40.558Z,8.37
2023-01-21T14:33:47.966Z,7.33
2023-01-21T14:37:56.971Z,9.00
2023-01-21T14:42:10.060Z,8.03
2023-01-21T14:46:31.957Z,7.00
2023-01-21T14:50:46.758Z,7.63
2023-01-21T14:54:52.349Z,7.80
2023-01-21T14:58:57.368Z,7.27
2023-01-21T15:03:14.514Z,7.50
2023-01-21T15:07:20.216Z,7.30
2023-01-21T15:11:30.334Z,8.33
2023-01-21T15:15:36.664Z,6.80
2023-01-21T15:19:39.355Z,7.07
2023-01-21T15:23:42.163Z,6.60
2023-01-21T15:28:25.164Z,7.20
2023-01-21T15:32:30.410Z,7.40
2023-01-21T15:36:34.767Z,8.13
2023-01-21T15:40:40.471Z,10.93
2023-01-21T15:44:53.067Z,10.50
2023-01-21T15:49:03.510Z,10.83
2023-01-21T15:53:25.797Z,9.47
2023-01-21T15:57:38.429Z,7.27
2023-01-21T16:01:43.115Z,7.60
2023-01-21T16:05:53.421Z,7.73
2023-01-21T16:10:03.715Z,7.70
2023-01-21T16:14:16.701Z,7.60
2023-01-21T16:18:28.563Z,9.23
2023-01-21T16:22:34.086Z,7.57
2023-01-21T16:26:37.131Z,7.43
2023-01-21T16:30:39.925Z,8.00
2023-01-21T16:34:44.264Z,8.40
2023-01-21T16:38:48.379Z,7.23
2023-01-21T16:43:06.086Z,7.67
2023-01-21T16:47:19.619Z,7.80
2023-01-21T16:51:26.046Z,9.07
2023-01-21T16:55:30.927Z,9.03
2023-01-21T16:59:39.724Z,8.87
2023-01-21T17:03:43.207Z,10.47
2023-01-21T17:07:49.244Z,18.03
2023-01-21T17:11:52.124Z,12.17
2023-01-21T17:15:58.137Z,16.77
2023-01-21T17:20:02.735Z,17.27
2023-01-21T17:24:09.130Z,23.57
2023-01-21T17:28:18.714Z,11.20
2023-01-21T17:32:27.753Z,8.93
2023-01-21T17:36:35.137Z,8.17
2023-01-21T17:40:41.999Z,8.30
2023-01-21T17:44:46.777Z,7.90
2023-01-21T17:48:51.050Z,8.00
2023-01-21T17:52:55.658Z,7.80
2023-01-21T17:57:01.408Z,7.63
2023-01-21T18:01:06.098Z,7.90
2023-01-21T18:05:09.277Z,7.93
2023-01-21T18:09:13.545Z,8.33
2023-01-21T18:13:19.222Z,9.17
2023-01-21T18:17:24.253Z,7.60
2023-01-21T18:21:26.949Z,7.27
2023-01-21T18:25:30.215Z,8.00
2023-01-21T18:29:34.309Z,7.60
2023-01-21T18:33:37.020Z,7.87
2023-01-21T18:37:39.763Z,8.47
2023-01-21T18:41:42.757Z,8.67
2023-01-21T18:45:47.512Z,8.63
2023-01-21T18:49:51.466Z,8.43
2023-01-21T18:53:55.022Z,9.13
2023-01-21T18:57:57.999Z,9.30
2023-01-21T19:02:02.209Z,9.57
2023-01-21T19:06:11.044Z,9.23
2023-01-21T19:10:17.130Z,9.03
2023-01-21T19:14:20.784Z,8.67
2023-01-21T19:18:27.076Z,9.43
2023-01-21T19:22:31.075Z,9.93
2023-01-21T19:26:34.551Z,10.70
2023-01-21T19:30:38.420Z,9.90
2023-01-21T19:34:42.937Z,8.60
2023-01-21T19:38:51.602Z,9.17
2023-01-21T19:42:54.949Z,7.87
2023-01-21T19:46:59.346Z,7.80
2023-01-21T19:51:04.474Z,9.63
2023-01-21T19:55:08.128Z,8.97
2023-01-21T19:59:13.431Z,9.30
2023-01-21T20:03:17.306Z,9.80
2023-01-21T20:07:22.437Z,9.37
2023-01-21T20:11:25.158Z,8.50
2023-01-21T20:15:30.622Z,9.67
2023-01-21T20:19:33.357Z,8.83
2023-01-21T20:23:39.561Z,8.77
2023-01-21T20:27:43.260Z,8.70
2023-01-21T20:31:46.400Z,8.30
2023-01-21T20:35:50.497Z,8.07
2023-01-21T20:39:54.923Z,7.97
2023-01-21T20:43:57.853Z,8.27
2023-01-21T20:48:02.424Z,7.93
2023-01-21T20:52:05.550Z,7.47
2023-01-21T20:56:18.981Z,8.00
2023-01-21T21:00:25.952Z,8.70
2023-01-21T21:04:29.958Z,8.10
2023-01-21T21:08:32.697Z,8.57
2023-01-21T21:12:37.529Z,8.07
2023-01-21T21:16:40.856Z,8.03
2023-01-21T21:20:44.111Z,8.73
2023-01-21T21:24:46.860Z,8.07
2023-01-21T21:28:51.397Z,7.63
2023-01-21T21:32:54.257Z,7.27
2023-01-21T21:36:57.201Z,7.70
2023-01-21T21:41:20.408Z,7.70
2023-01-21T21:45:25.348Z,7.53
2023-01-21T21:49:30.571Z,6.70
2023-01-21T21:53:33.773Z,6.40
2023-01-21T21:57:36.599Z,6.93
2023-01-21T22:01:42.179Z,6.87
2023-01-21T22:05:51.981Z,6.73
2023-01-21T22:09:55.804Z,7.60
2023-01-21T22:14:03.759Z,7.30
2023-01-21T22:18:08.026Z,7.00
2023-01-21T22:22:10.871Z,7.00
2023-01-21T22:26:18.460Z,6.43
2023-01-21T22:30:22.637Z,6.50
2023-01-21T22:34:26.879Z,6.60
2023-01-21T22:38:29.577Z,6.30
2023-01-21T22:42:33.395Z,6.83
2023-01-21T22:46:36.967Z,6.97
2023-01-21T22:50:44.021Z,6.43
2023-01-21T22:54:48.825Z,5.90
2023-01-21T22:58:52.501Z,6.60
2023-01-21T23:02:55.488Z,6.80
2023-01-21T23:07:00.069Z,6.63
2023-01-21T23:11:03.786Z,6.00
2023-01-21T23:15:07.312Z,6.37
2023-01-21T23:19:10.024Z,6.47
2023-01-21T23:23:14.353Z,5.97
2023-01-21T23:27:17.348Z,5.57
2023-01-21T23:31:20.083Z,5.67
2023-01-21T23:35:22.796Z,6.03
2023-01-21T23:39:26.876Z,5.40
2023-01-21T23:43:30.332Z,5.83
2023-01-21T23:47:33.103Z,5.80
2023-01-21T23:51:36.362Z,6.00
2023-01-21T23:55:40.486Z,6.00
2023-01-21T23:59:43.250Z,6.13
